Time;durP1;ratioP1;P1;durP2;ratioP2;P2;SDS_P1;SDS_P2;PMS_P1;PMS_P2;Temp;Humidity;BMP_temperature;BMP_pressure;BME280_temperature;BME280_humidity;BME280_pressure;Samples;Min_cycle;Max_cycle;Signal;HPM_P1;HPM_P2
2023/06/18 00:01:59;;;;;;;76.38;55.08;;;23.20;62.40;;;;;;4956797;28;94733;-80
2023/06/18 00:04:25;;;;;;;76.00;55.13;;;23.20;62.30;;;;;;4964796;28;94585;-81
2023/06/18 00:06:51;;;;;;;77.10;55.30;;;23.10;62.40;;;;;;4964038;28;98715;-80
2023/06/18 00:09:17;;;;;;;76.80;55.50;;;23.10;62.50;;;;;;4957062;28;101629;-83
2023/06/18 00:11:42;;;;;;;76.40;54.97;;;23.10;62.50;;;;;;4966902;28;94667;-81
2023/06/18 00:14:08;;;;;;;76.40;55.42;;;23.10;62.50;;;;;;4955438;28;94771;-81
2023/06/18 00:16:34;;;;;;;76.25;55.13;;;23.10;62.60;;;;;;4957705;28;99930;-81
2023/06/18 00:18:59;;;;;;;75.43;55.03;;;23.10;62.50;;;;;;4954574;28;98717;-81
2023/06/18 00:21:25;;;;;;;75.55;54.88;;;23.10;62.70;;;;;;4954978;28;94654;-82
2023/06/18 00:23:51;;;;;;;75.90;54.92;;;23.10;62.80;;;;;;4956936;28;94769;-81
2023/06/18 00:26:16;;;;;;;75.63;55.15;;;23.00;62.80;;;;;;4955552;28;95151;-81
2023/06/18 00:28:42;;;;;;;76.50;55.17;;;23.00;62.80;;;;;;4960264;28;98043;-81
2023/06/18 00:31:11;;;;;;;76.68;55.28;;;23.00;63.00;;;;;;4961765;28;94968;-81
2023/06/18 00:33:37;;;;;;;76.32;55.40;;;23.00;62.90;;;;;;4966809;28;93610;-81
2023/06/18 00:36:06;;;;;;;75.68;55.03;;;23.00;62.90;;;;;;4959714;28;95886;-83
2023/06/18 00:38:35;;;;;;;75.93;55.13;;;23.00;63.10;;;;;;4956866;28;94661;-81
2023/06/18 00:41:01;;;;;;;76.88;55.47;;;22.90;63.00;;;;;;4961895;28;95500;-81
2023/06/18 00:43:27;;;;;;;76.05;55.13;;;22.90;63.20;;;;;;4960167;28;94496;-81
2023/06/18 00:46:01;;;;;;;77.65;55.03;;;22.90;63.10;;;;;;4957189;28;98570;-81
2023/06/18 00:48:27;;;;;;;75.47;55.13;;;22.80;63.40;;;;;;4945317;28;97630;-81
2023/06/18 00:50:53;;;;;;;76.07;54.92;;;22.80;63.50;;;;;;4960877;28;94735;-83
2023/06/18 00:53:20;;;;;;;76.57;55.17;;;22.80;63.40;;;;;;4961778;28;95194;-81
2023/06/18 00:55:50;;;;;;;75.85;54.95;;;22.80;63.50;;;;;;4961795;28;98031;-80
2023/06/18 00:58:17;;;;;;;75.95;55.22;;;22.80;63.60;;;;;;4966478;28;94591;-81
2023/06/18 01:00:42;;;;;;;76.95;55.53;;;22.70;63.80;;;;;;4960051;28;95264;-83
2023/06/18 01:03:17;;;;;;;75.22;54.92;;;22.70;63.60;;;;;;4958709;28;94698;-81
2023/06/18 01:05:45;;;;;;;76.43;55.40;;;22.70;63.50;;;;;;4970502;28;98489;-83
2023/06/18 01:08:12;;;;;;;75.82;55.45;;;22.70;63.60;;;;;;4960004;28;95329;-83
2023/06/18 01:10:40;;;;;;;75.78;55.03;;;22.70;63.90;;;;;;4956837;28;94854;-81
2023/06/18 01:13:11;;;;;;;75.57;55.28;;;22.60;63.80;;;;;;4962730;28;96096;-83
2023/06/18 01:15:38;;;;;;;75.40;54.95;;;22.60;64.00;;;;;;4957061;28;97849;-81
2023/06/18 01:18:06;;;;;;;75.43;55.28;;;22.60;64.00;;;;;;4955298;28;96335;-82
2023/06/18 01:20:40;;;;;;;78.72;55.58;;;22.60;64.20;;;;;;4958026;28;94865;-82
2023/06/18 01:23:27;;;;;;;77.15;55.10;;;22.60;64.40;;;;;;4957109;28;93988;-82
2023/06/18 01:25:57;;;;;;;75.30;54.85;;;22.50;64.20;;;;;;4959424;28;95326;-81
2023/06/18 01:28:24;;;;;;;75.15;55.13;;;22.50;64.30;;;;;;4959272;28;95574;-81
2023/06/18 01:30:50;;;;;;;75.63;54.95;;;22.50;64.50;;;;;;4962611;28;95792;-80
2023/06/18 01:33:16;;;;;;;75.88;55.10;;;22.50;64.20;;;;;;4956466;28;94902;-81
2023/06/18 01:35:41;;;;;;;75.00;54.95;;;22.50;64.30;;;;;;4957933;28;94948;-81
2023/06/18 01:38:30;;;;;;;75.18;54.92;;;22.50;64.60;;;;;;4962693;28;96488;-80
2023/06/18 01:41:11;;;;;;;75.10;54.88;;;22.50;64.50;;;;;;4957802;28;94628;-80
2023/06/18 01:43:48;;;;;;;75.80;55.05;;;22.50;64.60;;;;;;4957029;28;95398;-80
2023/06/18 01:46:16;;;;;;;78.05;55.33;;;22.40;64.60;;;;;;4953394;28;97195;-83
2023/06/18 01:48:51;;;;;;;75.30;54.83;;;22.40;64.90;;;;;;4958355;28;99011;-81
2023/06/18 01:51:19;;;;;;;75.22;54.95;;;22.40;64.80;;;;;;4971772;28;94702;-81
2023/06/18 01:53:46;;;;;;;75.10;55.00;;;22.40;64.80;;;;;;4957487;28;96713;-80
2023/06/18 01:56:13;;;;;;;74.70;54.65;;;22.40;64.90;;;;;;4955325;28;99203;-81
2023/06/18 01:58:42;;;;;;;75.18;54.78;;;22.40;65.00;;;;;;4954728;28;97643;-81
2023/06/18 02:01:09;;;;;;;76.30;55.15;;;22.30;64.70;;;;;;4946912;28;95610;-81
2023/06/18 02:03:35;;;;;;;76.00;55.17;;;22.30;64.80;;;;;;4957289;28;96139;-81
2023/06/18 02:06:01;;;;;;;75.35;55.03;;;22.30;64.90;;;;;;4950803;28;97880;-82
2023/06/18 02:08:27;;;;;;;74.70;54.70;;;22.30;64.40;;;;;;4953649;28;98576;-82
2023/06/18 02:10:53;;;;;;;75.47;54.95;;;22.30;64.60;;;;;;4965218;28;95328;-82
2023/06/18 02:13:19;;;;;;;75.20;54.85;;;22.30;64.80;;;;;;4957405;28;95800;-82
2023/06/18 02:15:44;;;;;;;75.22;55.03;;;22.20;64.80;;;;;;4960718;28;97902;-84
2023/06/18 02:18:11;;;;;;;75.57;55.05;;;22.30;64.90;;;;;;4961342;28;98331;-81
2023/06/18 02:20:38;;;;;;;75.75;54.78;;;22.30;64.90;;;;;;4952213;28;97402;-81
2023/06/18 02:23:04;;;;;;;75.93;54.92;;;22.20;64.90;;;;;;4959644;28;94738;-82
2023/06/18 02:25:32;;;;;;;75.07;55.25;;;22.20;64.80;;;;;;4960075;28;98148;-81
2023/06/18 02:28:02;;;;;;;75.55;54.63;;;22.20;65.20;;;;;;4953804;28;96920;-81
2023/06/18 02:30:31;;;;;;;76.18;55.13;;;22.20;64.80;;;;;;4961603;28;97142;-81
2023/06/18 02:32:58;;;;;;;75.25;54.95;;;22.20;64.90;;;;;;4960186;28;94531;-83
2023/06/18 02:35:25;;;;;;;75.57;55.22;;;22.20;65.10;;;;;;4957093;28;98278;-84
2023/06/18 02:37:50;;;;;;;75.43;55.03;;;22.10;65.10;;;;;;4957376;28;97688;-82
2023/06/18 02:40:16;;;;;;;75.05;54.80;;;22.20;65.60;;;;;;4955967;28;94667;-81
2023/06/18 02:42:47;;;;;;;75.18;55.05;;;22.10;64.90;;;;;;4961861;28;96373;-82
2023/06/18 02:45:18;;;;;;;74.30;54.72;;;22.10;65.50;;;;;;4958380;28;99426;-83
2023/06/18 02:47:45;;;;;;;75.20;55.03;;;22.10;65.30;;;;;;4960649;28;98716;-82
2023/06/18 02:50:11;;;;;;;73.95;54.38;;;22.10;65.10;;;;;;4967961;28;94037;-82
2023/06/18 02:52:38;;;;;;;74.78;54.85;;;22.10;65.90;;;;;;4957258;28;95050;-82
2023/06/18 02:55:05;;;;;;;74.95;54.75;;;22.10;65.30;;;;;;4954610;28;95029;-81
2023/06/18 02:57:31;;;;;;;73.97;54.47;;;22.20;65.40;;;;;;4960445;28;98233;-81
2023/06/18 02:59:57;;;;;;;74.68;54.30;;;22.20;65.40;;;;;;4960227;28;94908;-83
2023/06/18 03:02:23;;;;;;;75.07;54.88;;;22.20;65.50;;;;;;4955949;28;94430;-82
2023/06/18 03:04:50;;;;;;;74.57;54.42;;;22.20;65.30;;;;;;4946534;28;99074;-83
2023/06/18 03:07:15;;;;;;;74.40;54.38;;;22.20;64.90;;;;;;4956247;28;96878;-82
2023/06/18 03:09:41;;;;;;;74.13;54.75;;;22.20;64.70;;;;;;4958417;28;96732;-82
2023/06/18 03:12:07;;;;;;;75.10;54.83;;;22.10;65.40;;;;;;4951490;28;95579;-82
2023/06/18 03:14:33;;;;;;;74.95;54.80;;;22.20;65.60;;;;;;4955305;28;97145;-82
2023/06/18 03:16:58;;;;;;;74.35;54.25;;;22.20;65.40;;;;;;4966689;28;98871;-82
2023/06/18 03:19:24;;;;;;;74.47;54.67;;;22.20;65.20;;;;;;4952702;28;94978;-82
2023/06/18 03:21:50;;;;;;;74.45;54.35;;;22.20;64.60;;;;;;4960315;28;94859;-82
2023/06/18 03:24:15;;;;;;;74.45;54.90;;;22.20;65.40;;;;;;4958236;28;97937;-82
2023/06/18 03:26:43;;;;;;;74.35;54.80;;;22.20;64.80;;;;;;4965917;28;98164;-82
2023/06/18 03:29:09;;;;;;;74.15;54.53;;;22.20;64.80;;;;;;4966125;28;95323;-81
2023/06/18 03:31:35;;;;;;;74.72;54.75;;;22.20;65.60;;;;;;4960344;28;95041;-81
2023/06/18 03:34:04;;;;;;;74.70;54.72;;;22.20;65.30;;;;;;4961506;28;96436;-81
2023/06/18 03:36:30;;;;;;;74.85;55.13;;;22.20;64.80;;;;;;4959063;28;98497;-81
2023/06/18 03:38:56;;;;;;;74.63;54.45;;;22.20;64.60;;;;;;4962730;28;94571;-81
2023/06/18 03:41:22;;;;;;;74.43;54.75;;;22.20;65.30;;;;;;4959228;28;102267;-81
2023/06/18 03:43:48;;;;;;;74.40;54.80;;;22.20;64.50;;;;;;4955384;28;96206;-81
2023/06/18 03:46:14;;;;;;;74.43;54.88;;;22.20;64.70;;;;;;4961712;28;97735;-81
2023/06/18 03:48:41;;;;;;;75.07;54.38;;;22.20;64.70;;;;;;4958793;28;94728;-82
2023/06/18 03:51:07;;;;;;;74.35;54.70;;;22.20;64.80;;;;;;4960395;28;98589;-81
2023/06/18 03:53:36;;;;;;;74.75;54.63;;;22.20;64.70;;;;;;4957566;28;98410;-81
2023/06/18 03:56:03;;;;;;;74.28;54.30;;;22.20;64.60;;;;;;4957496;28;100589;-81
2023/06/18 03:58:30;;;;;;;74.68;54.80;;;22.20;65.50;;;;;;4960093;28;95758;-81
2023/06/18 04:00:55;;;;;;;74.10;53.97;;;22.20;65.30;;;;;;4959148;28;96151;-81
2023/06/18 04:03:22;;;;;;;74.53;54.35;;;22.20;65.00;;;;;;4962033;28;97839;-84
2023/06/18 04:05:48;;;;;;;74.22;54.15;;;22.20;65.00;;;;;;4955599;28;96100;-81
2023/06/18 04:08:14;;;;;;;74.13;54.58;;;22.20;64.90;;;;;;4955046;28;95643;-81
2023/06/18 04:10:40;;;;;;;76.63;55.30;;;22.10;64.80;;;;;;4958909;28;95727;-81
2023/06/18 04:13:06;;;;;;;74.88;54.53;;;22.20;64.60;;;;;;4961240;28;98753;-81
2023/06/18 04:15:32;;;;;;;74.47;54.65;;;22.10;64.80;;;;;;4960784;28;98065;-81
2023/06/18 04:17:58;;;;;;;74.15;54.42;;;22.10;64.90;;;;;;4958658;28;96143;-81
2023/06/18 04:20:23;;;;;;;73.97;54.65;;;22.20;65.30;;;;;;4960188;28;99838;-81
2023/06/18 04:22:49;;;;;;;74.72;54.55;;;22.10;64.70;;;;;;4958718;28;99156;-83
2023/06/18 04:25:15;;;;;;;74.47;54.63;;;22.20;65.20;;;;;;4949628;28;99548;-81
2023/06/18 04:27:42;;;;;;;74.40;54.30;;;22.20;65.10;;;;;;4959487;28;97078;-82
2023/06/18 04:30:08;;;;;;;74.65;54.40;;;22.10;64.90;;;;;;4963455;28;94523;-81
2023/06/18 04:32:34;;;;;;;74.55;54.53;;;22.10;65.50;;;;;;4958475;28;98800;-81
2023/06/18 04:34:59;;;;;;;74.40;54.55;;;22.10;65.20;;;;;;4959931;28;98055;-81
2023/06/18 04:37:25;;;;;;;74.95;54.45;;;22.20;65.10;;;;;;4962436;28;102500;-84
2023/06/18 04:39:51;;;;;;;75.10;54.38;;;22.10;64.80;;;;;;4954044;28;95273;-81
2023/06/18 04:42:16;;;;;;;74.18;54.67;;;22.20;64.80;;;;;;4960114;28;98147;-81
2023/06/18 04:44:42;;;;;;;73.82;54.35;;;22.20;64.90;;;;;;4962863;28;98976;-81
2023/06/18 04:47:08;;;;;;;74.13;54.65;;;22.10;65.20;;;;;;4963014;28;95467;-80
2023/06/18 04:49:34;;;;;;;73.95;54.47;;;22.10;64.70;;;;;;4957782;28;94675;-82
2023/06/18 04:52:00;;;;;;;74.45;54.60;;;22.20;64.80;;;;;;4962181;28;98373;-81
2023/06/18 04:54:26;;;;;;;74.20;54.42;;;22.10;64.70;;;;;;4958492;28;98195;-83
2023/06/18 04:56:52;;;;;;;75.88;54.65;;;22.10;65.00;;;;;;4962797;28;94676;-81
2023/06/18 04:59:19;;;;;;;73.95;54.42;;;22.10;65.20;;;;;;4961895;28;95102;-81
2023/06/18 05:01:44;;;;;;;73.57;54.17;;;22.10;64.80;;;;;;4961813;28;94726;-81
2023/06/18 05:04:10;;;;;;;73.65;54.28;;;22.10;65.30;;;;;;4967621;28;94705;-82
2023/06/18 05:06:35;;;;;;;73.82;54.58;;;22.10;65.20;;;;;;4962063;28;95370;-81
2023/06/18 05:09:02;;;;;;;73.60;54.00;;;22.10;65.30;;;;;;4958963;28;95259;-82
2023/06/18 05:11:28;;;;;;;73.78;54.25;;;22.10;65.20;;;;;;4961141;28;99521;-83
2023/06/18 05:13:53;;;;;;;74.07;54.22;;;22.10;65.20;;;;;;4959129;28;96315;-81
2023/06/18 05:16:19;;;;;;;74.45;54.25;;;22.10;65.30;;;;;;4961580;28;94715;-83
2023/06/18 05:18:44;;;;;;;74.43;54.38;;;22.10;64.70;;;;;;4960985;28;94383;-81
2023/06/18 05:21:10;;;;;;;73.97;54.30;;;22.20;64.90;;;;;;4962444;28;98310;-83
2023/06/18 05:23:36;;;;;;;74.10;54.28;;;22.10;64.70;;;;;;4959821;28;100745;-81
2023/06/18 05:26:02;;;;;;;74.75;54.67;;;22.10;64.90;;;;;;4962831;28;94984;-80
2023/06/18 05:28:27;;;;;;;75.25;54.75;;;22.10;64.90;;;;;;4966625;28;93765;-81
2023/06/18 05:30:53;;;;;;;73.75;54.03;;;22.10;64.60;;;;;;4960931;28;97950;-81
2023/06/18 05:33:18;;;;;;;73.50;54.17;;;22.10;65.30;;;;;;4957872;28;96384;-81
2023/06/18 05:35:45;;;;;;;73.53;54.25;;;22.10;64.90;;;;;;4960343;28;101201;-81
2023/06/18 05:38:10;;;;;;;74.60;54.60;;;22.10;64.70;;;;;;4956292;28;94792;-82
2023/06/18 05:40:36;;;;;;;74.78;54.75;;;22.10;64.70;;;;;;4954766;28;95371;-84
2023/06/18 05:43:01;;;;;;;73.80;54.25;;;22.20;64.70;;;;;;4960369;28;94382;-81
2023/06/18 05:45:27;;;;;;;73.88;54.25;;;22.10;64.60;;;;;;4963440;28;95212;-81
2023/06/18 05:47:53;;;;;;;73.65;54.35;;;22.10;65.20;;;;;;4960249;28;96974;-81
2023/06/18 05:50:18;;;;;;;73.50;54.47;;;22.10;65.10;;;;;;4956665;28;95344;-81
2023/06/18 05:52:44;;;;;;;74.10;54.25;;;22.10;64.90;;;;;;4957826;28;98659;-82
2023/06/18 05:55:10;;;;;;;73.57;54.03;;;22.10;64.80;;;;;;4964313;28;94410;-82
2023/06/18 05:57:36;;;;;;;74.32;54.25;;;22.10;64.70;;;;;;4962145;28;95765;-81
2023/06/18 06:00:02;;;;;;;75.00;54.25;;;22.10;64.90;;;;;;4958193;28;99600;-84
2023/06/18 06:02:28;;;;;;;73.80;53.95;;;22.10;65.20;;;;;;4960824;28;97841;-83
2023/06/18 06:04:54;;;;;;;74.18;54.38;;;22.10;65.20;;;;;;4954217;28;94967;-81
2023/06/18 06:07:20;;;;;;;73.47;54.25;;;22.10;65.00;;;;;;4961262;28;94726;-84
2023/06/18 06:09:45;;;;;;;74.47;54.75;;;22.10;64.90;;;;;;4956208;28;97865;-84
2023/06/18 06:12:12;;;;;;;74.13;54.45;;;22.10;64.80;;;;;;4956568;28;97054;-81
2023/06/18 06:14:38;;;;;;;74.97;54.72;;;22.10;65.00;;;;;;4964023;28;94979;-82
2023/06/18 06:17:03;;;;;;;76.05;54.75;;;22.00;65.10;;;;;;4955616;28;95058;-81
2023/06/18 06:19:29;;;;;;;74.63;54.38;;;22.00;65.20;;;;;;4953949;28;99452;-82
2023/06/18 06:21:55;;;;;;;74.03;54.45;;;22.00;64.90;;;;;;4954518;28;100682;-82
2023/06/18 06:24:20;;;;;;;74.38;54.50;;;22.00;64.90;;;;;;4959450;28;95685;-81
2023/06/18 06:26:46;;;;;;;74.05;54.67;;;22.00;65.30;;;;;;4956219;28;95237;-82
2023/06/18 06:29:12;;;;;;;73.68;54.42;;;22.00;65.10;;;;;;4953483;28;95650;-82
2023/06/18 06:31:37;;;;;;;74.53;54.80;;;22.00;65.70;;;;;;4953854;28;95109;-81
2023/06/18 06:34:03;;;;;;;74.35;54.65;;;22.00;65.30;;;;;;4951323;28;95149;-83
2023/06/18 06:36:29;;;;;;;77.78;55.05;;;21.90;66.20;;;;;;4957861;28;94576;-83
2023/06/18 06:38:54;;;;;;;74.78;54.58;;;21.90;65.60;;;;;;4958307;28;97629;-82
2023/06/18 06:41:20;;;;;;;74.72;54.53;;;21.90;65.60;;;;;;4955083;28;94708;-82
2023/06/18 06:43:46;;;;;;;74.43;54.72;;;21.90;65.60;;;;;;4958457;28;94885;-82
2023/06/18 06:46:11;;;;;;;75.20;54.95;;;21.90;65.80;;;;;;4959079;28;95906;-80
2023/06/18 06:48:38;;;;;;;74.93;54.97;;;21.90;65.80;;;;;;4960488;28;96165;-81
2023/06/18 06:51:04;;;;;;;75.68;55.08;;;21.90;66.00;;;;;;4952256;28;102599;-82
2023/06/18 06:53:29;;;;;;;74.70;55.00;;;21.90;66.90;;;;;;4956224;28;94825;-83
2023/06/18 06:55:55;;;;;;;74.57;54.75;;;22.00;66.40;;;;;;4959822;28;94826;-82
2023/06/18 06:58:20;;;;;;;74.22;54.85;;;22.00;66.80;;;;;;4970092;28;98299;-81
2023/06/18 07:00:46;;;;;;;75.00;54.80;;;22.00;66.50;;;;;;4959346;28;97393;-81
2023/06/18 07:03:12;;;;;;;75.25;55.30;;;22.10;66.80;;;;;;4957780;28;95129;-81
2023/06/18 07:05:37;;;;;;;74.07;54.55;;;22.10;66.40;;;;;;4955428;28;95285;-81
2023/06/18 07:08:05;;;;;;;74.60;55.17;;;22.10;66.50;;;;;;4956867;28;98053;-82
2023/06/18 07:10:31;;;;;;;75.15;54.75;;;22.20;65.60;;;;;;4959493;28;97850;-82
2023/06/18 07:12:57;;;;;;;75.43;55.25;;;22.20;65.50;;;;;;4951589;28;95605;-84
2023/06/18 07:15:22;;;;;;;75.20;55.50;;;22.20;65.10;;;;;;4956276;28;94751;-81
2023/06/18 07:17:48;;;;;;;75.30;55.22;;;22.30;65.50;;;;;;4954085;28;95370;-81
2023/06/18 07:20:13;;;;;;;74.85;55.35;;;22.30;65.20;;;;;;4950114;28;98870;-81
2023/06/18 07:22:39;;;;;;;74.93;55.10;;;22.40;65.30;;;;;;4954879;28;95275;-80
2023/06/18 07:25:06;;;;;;;75.43;55.35;;;22.40;65.10;;;;;;4951998;28;94931;-84
2023/06/18 07:27:31;;;;;;;75.10;55.53;;;22.40;64.70;;;;;;4967032;28;99637;-83
2023/06/18 07:29:57;;;;;;;75.18;55.33;;;22.50;65.30;;;;;;4965850;28;98005;-82
2023/06/18 07:32:22;;;;;;;75.00;54.70;;;22.60;65.30;;;;;;4959100;28;94782;-81
2023/06/18 07:34:48;;;;;;;76.88;55.38;;;22.60;64.60;;;;;;4961948;28;99902;-81
2023/06/18 07:37:14;;;;;;;76.55;55.05;;;22.70;64.10;;;;;;4954851;28;97036;-81
2023/06/18 07:39:39;;;;;;;75.60;55.22;;;22.70;63.90;;;;;;4952884;28;98678;-81
2023/06/18 07:42:05;;;;;;;75.90;55.03;;;22.80;63.40;;;;;;4962948;28;94492;-83
2023/06/18 07:44:31;;;;;;;77.68;57.63;;;22.80;63.90;;;;;;4952556;28;95367;-85
2023/06/18 07:46:56;;;;;;;78.57;57.92;;;22.90;75.40;;;;;;4958913;28;100074;-83
2023/06/18 07:49:22;;;;;;;77.43;57.58;;;22.90;76.20;;;;;;4960546;28;100238;-84
2023/06/18 07:51:48;;;;;;;80.25;58.55;;;22.90;75.50;;;;;;4961361;28;95600;-83
2023/06/18 07:54:14;;;;;;;79.97;58.40;;;22.80;77.60;;;;;;4963087;28;94119;-83
2023/06/18 07:56:40;;;;;;;81.53;57.55;;;22.90;77.80;;;;;;4978467;28;98359;-85
2023/06/18 07:59:05;;;;;;;80.03;57.83;;;23.00;77.40;;;;;;4958415;28;96916;-83
2023/06/18 08:01:32;;;;;;;80.07;58.50;;;22.90;78.40;;;;;;4959259;28;95606;-82
2023/06/18 08:03:57;;;;;;;78.32;58.35;;;22.80;79.20;;;;;;4960846;28;94832;-82
2023/06/18 08:06:24;;;;;;;79.65;58.80;;;22.60;81.20;;;;;;4960555;28;95252;-82
2023/06/18 08:08:50;;;;;;;79.25;58.78;;;22.40;83.80;;;;;;4964797;28;97901;-82
2023/06/18 08:11:17;;;;;;;78.38;57.80;;;22.30;83.20;;;;;;4961920;28;95265;-84
2023/06/18 08:13:42;;;;;;;80.63;58.60;;;22.30;82.80;;;;;;4963018;28;94818;-83
2023/06/18 08:16:08;;;;;;;79.55;58.67;;;22.40;84.00;;;;;;4954609;28;95465;-83
2023/06/18 08:18:34;;;;;;;78.38;57.30;;;22.40;84.70;;;;;;4958197;28;98501;-83
2023/06/18 08:21:00;;;;;;;79.60;57.08;;;22.40;83.50;;;;;;4949595;28;95271;-85
2023/06/18 08:23:26;;;;;;;79.32;57.35;;;22.40;82.20;;;;;;4962366;28;94780;-81
2023/06/18 08:25:52;;;;;;;77.75;56.95;;;22.50;80.10;;;;;;4959545;28;98556;-83
2023/06/18 08:28:17;;;;;;;79.55;57.92;;;22.60;81.50;;;;;;4959854;28;99907;-82
2023/06/18 08:30:43;;;;;;;78.40;57.88;;;22.70;82.10;;;;;;4965561;28;94543;-82
2023/06/18 08:33:12;;;;;;;78.20;57.88;;;22.70;82.40;;;;;;4964045;28;95031;-80
2023/06/18 08:35:38;;;;;;;78.15;58.65;;;22.60;82.70;;;;;;4967312;28;99091;-81
2023/06/18 08:38:04;;;;;;;81.55;59.55;;;22.60;85.70;;;;;;4962718;28;97340;-80
2023/06/18 08:40:48;;;;;;;78.32;59.03;;;22.60;86.30;;;;;;4962515;28;95065;-80
2023/06/18 08:43:14;;;;;;;78.13;58.20;;;22.60;86.70;;;;;;4967574;28;93843;-82
2023/06/18 08:45:40;;;;;;;80.05;59.78;;;22.60;85.60;;;;;;4967253;28;95009;-80
2023/06/18 08:48:08;;;;;;;78.13;58.58;;;22.70;85.00;;;;;;4960043;28;97889;-80
2023/06/18 08:50:35;;;;;;;79.30;58.63;;;22.70;84.10;;;;;;4958489;28;102421;-81
2023/06/18 08:53:09;;;;;;;81.75;57.80;;;22.70;84.30;;;;;;4960580;28;95471;-81
2023/06/18 08:55:35;;;;;;;78.47;58.20;;;22.80;83.50;;;;;;4959653;28;95163;-83
2023/06/18 08:58:07;;;;;;;76.95;58.30;;;22.70;81.20;;;;;;4954503;28;102222;-81
2023/06/18 09:00:33;;;;;;;78.13;58.33;;;22.60;82.10;;;;;;4963094;28;94873;-80
2023/06/18 09:02:59;;;;;;;78.75;58.38;;;22.60;84.90;;;;;;4961521;28;95004;-81
2023/06/18 09:05:26;;;;;;;78.15;58.75;;;22.50;85.00;;;;;;4957807;28;96501;-84
2023/06/18 09:07:54;;;;;;;77.65;58.60;;;22.60;88.00;;;;;;4959042;28;95567;-81
2023/06/18 09:10:21;;;;;;;79.57;58.58;;;22.60;87.60;;;;;;4955447;28;95947;-84
2023/06/18 09:12:47;;;;;;;79.95;59.50;;;22.70;84.80;;;;;;4967335;28;94662;-85
2023/06/18 09:15:13;;;;;;;80.10;59.08;;;22.80;85.20;;;;;;4959361;28;95998;-81
2023/06/18 09:17:40;;;;;;;79.32;59.15;;;23.00;84.30;;;;;;4957860;28;99136;-81
2023/06/18 09:20:07;;;;;;;80.28;59.85;;;23.20;81.30;;;;;;4959851;28;94723;-84
2023/06/18 09:22:45;;;;;;;81.20;58.83;;;23.20;82.80;;;;;;4957793;28;94902;-83
2023/06/18 09:25:10;;;;;;;80.95;59.70;;;23.30;82.10;;;;;;4963737;28;95340;-82
2023/06/18 09:27:38;;;;;;;82.38;59.42;;;23.30;81.60;;;;;;4971394;28;98509;-83
2023/06/18 09:30:08;;;;;;;80.22;58.28;;;23.30;79.90;;;;;;4964469;28;94474;-82
2023/06/18 09:32:46;;;;;;;79.47;59.22;;;23.30;80.60;;;;;;4963368;28;94441;-82
2023/06/18 09:35:15;;;;;;;81.20;59.05;;;23.30;81.60;;;;;;4962464;28;95176;-83
2023/06/18 09:37:41;;;;;;;81.15;60.97;;;23.30;81.30;;;;;;4965850;28;97838;-82
2023/06/18 09:40:21;;;;;;;81.63;61.17;;;23.40;80.10;;;;;;4963575;28;97209;-80
2023/06/18 09:42:48;;;;;;;82.45;61.92;;;23.30;83.60;;;;;;4963839;28;94805;-81
2023/06/18 09:45:15;;;;;;;82.82;60.55;;;23.50;84.90;;;;;;4960131;28;97988;-82
2023/06/18 09:47:45;;;;;;;81.57;61.55;;;23.60;81.20;;;;;;4954519;28;98908;-82
2023/06/18 09:50:11;;;;;;;83.70;60.60;;;23.70;84.00;;;;;;4961112;28;94407;-82
2023/06/18 09:52:48;;;;;;;81.40;60.30;;;23.80;79.30;;;;;;4963645;28;94618;-84
2023/06/18 09:55:30;;;;;;;83.45;61.40;;;23.90;78.10;;;;;;4966280;28;95329;-84
2023/06/18 09:57:57;;;;;;;81.72;60.55;;;24.10;80.90;;;;;;4965722;28;98487;-85
2023/06/18 10:00:24;;;;;;;82.80;61.55;;;24.10;79.30;;;;;;4967205;28;95223;-81
2023/06/18 10:02:50;;;;;;;81.97;60.17;;;24.20;77.50;;;;;;4961205;28;94922;-81
2023/06/18 10:05:16;;;;;;;83.20;61.88;;;24.30;76.00;;;;;;4963613;28;98886;-83
2023/06/18 10:07:42;;;;;;;83.60;61.25;;;24.40;75.60;;;;;;4963955;28;98399;-81
2023/06/18 10:10:16;;;;;;;81.95;60.20;;;24.50;76.00;;;;;;4964299;28;94724;-83
2023/06/18 10:12:48;;;;;;;81.43;59.47;;;24.50;75.30;;;;;;4966802;28;94775;-82
2023/06/18 10:15:15;;;;;;;81.00;58.83;;;24.70;74.90;;;;;;4980394;28;98252;-81
2023/06/18 10:17:55;;;;;;;83.10;59.72;;;24.80;72.50;;;;;;4966657;28;96709;-81
2023/06/18 10:20:24;;;;;;;85.07;59.70;;;25.00;71.00;;;;;;4961226;28;94616;-85
2023/06/18 10:22:57;;;;;;;82.22;59.30;;;25.10;70.60;;;;;;4964853;28;95033;-83
2023/06/18 10:25:25;;;;;;;82.32;59.30;;;25.20;69.40;;;;;;4958897;28;94735;-82
2023/06/18 10:27:51;;;;;;;82.55;60.08;;;25.30;70.00;;;;;;4963686;28;97947;-85
2023/06/18 10:30:18;;;;;;;85.40;59.47;;;25.40;70.60;;;;;;4958075;28;95543;-81
2023/06/18 10:32:44;;;;;;;80.45;59.10;;;25.40;69.00;;;;;;4958558;28;96377;-83
2023/06/18 10:35:13;;;;;;;82.60;59.17;;;25.40;69.70;;;;;;4956062;28;98508;-81
2023/06/18 10:37:39;;;;;;;84.00;59.88;;;25.40;69.00;;;;;;4960707;28;95085;-82
2023/06/18 10:40:06;;;;;;;82.05;58.78;;;25.50;69.90;;;;;;4958796;28;94559;-82
2023/06/18 10:42:33;;;;;;;83.47;59.38;;;25.60;69.20;;;;;;4963063;28;94640;-83
2023/06/18 10:45:09;;;;;;;85.35;59.92;;;25.80;67.40;;;;;;4952310;28;95217;-87
2023/06/18 10:47:35;;;;;;;81.53;58.83;;;25.80;69.50;;;;;;4956233;28;96890;-84
2023/06/18 10:50:04;;;;;;;87.35;59.65;;;25.80;68.70;;;;;;4958292;28;94508;-84
2023/06/18 10:52:31;;;;;;;81.70;59.10;;;25.70;70.30;;;;;;4955049;28;94898;-84
2023/06/18 10:55:06;;;;;;;82.20;60.28;;;25.80;70.00;;;;;;4955961;28;98980;-87
2023/06/18 10:57:35;;;;;;;86.00;61.20;;;25.70;70.00;;;;;;4961616;28;99635;-84
2023/06/18 11:00:25;;;;;;;82.60;60.00;;;25.80;68.40;;;;;;4953973;28;94758;-86
2023/06/18 11:03:04;;;;;;;83.40;59.85;;;25.80;67.50;;;;;;4957638;28;95598;-85
2023/06/18 11:05:34;;;;;;;81.43;60.05;;;25.80;68.60;;;;;;4960189;28;98483;-86
2023/06/18 11:08:01;;;;;;;81.95;59.65;;;25.80;70.20;;;;;;4958686;28;98059;-86
2023/06/18 11:10:39;;;;;;;82.70;61.40;;;25.80;69.20;;;;;;4961127;28;95025;-86
2023/06/18 11:13:07;;;;;;;83.82;60.78;;;25.80;72.70;;;;;;4959449;28;94013;-87
2023/06/18 11:15:53;;;;;;;85.00;62.13;;;25.80;70.90;;;;;;4956633;28;98166;-85
2023/06/18 11:18:21;;;;;;;81.60;59.72;;;25.80;69.80;;;;;;4956442;28;97093;-85
2023/06/18 11:20:47;;;;;;;83.93;60.78;;;25.80;68.80;;;;;;4954684;28;96540;-88
2023/06/18 11:23:15;;;;;;;82.57;59.72;;;25.90;69.50;;;;;;4953947;28;94752;-87
2023/06/18 11:25:42;;;;;;;82.78;59.45;;;25.90;68.60;;;;;;4957279;28;98930;-82
2023/06/18 11:28:09;;;;;;;82.20;59.55;;;26.00;68.30;;;;;;4957781;28;98161;-85
2023/06/18 11:30:37;;;;;;;83.68;59.20;;;26.00;68.30;;;;;;4960887;28;94729;-83
2023/06/18 11:33:03;;;;;;;83.72;58.65;;;26.00;67.80;;;;;;4951788;28;95108;-82
2023/06/18 11:35:32;;;;;;;81.97;58.85;;;26.00;68.80;;;;;;4949288;28;98081;-83
2023/06/18 11:37:58;;;;;;;81.40;58.80;;;26.10;67.80;;;;;;4956372;28;95165;-82
2023/06/18 11:40:24;;;;;;;80.88;58.70;;;26.20;68.10;;;;;;4955106;28;95003;-83
2023/06/18 11:42:52;;;;;;;82.15;57.78;;;26.20;64.40;;;;;;4959738;28;95155;-81
2023/06/18 11:45:19;;;;;;;82.00;58.22;;;26.20;65.90;;;;;;4955271;28;101541;-83
2023/06/18 11:47:50;;;;;;;81.88;58.28;;;26.30;66.60;;;;;;4965586;28;96035;-82
2023/06/18 11:50:17;;;;;;;81.60;57.65;;;26.40;65.60;;;;;;4964494;28;95421;-84
2023/06/18 11:52:44;;;;;;;80.70;58.30;;;26.50;63.80;;;;;;4965631;28;94617;-82
2023/06/18 11:55:10;;;;;;;81.40;58.00;;;26.60;65.30;;;;;;4962788;28;98081;-83
2023/06/18 11:57:36;;;;;;;80.35;57.65;;;26.70;64.70;;;;;;4958685;28;97546;-82
2023/06/18 12:00:08;;;;;;;81.85;58.22;;;26.80;62.80;;;;;;4961785;28;94649;-85
2023/06/18 12:02:36;;;;;;;81.97;58.45;;;26.90;62.50;;;;;;4956315;28;95832;-83
2023/06/18 12:05:03;;;;;;;82.15;57.78;;;26.90;64.90;;;;;;4962007;28;95211;-83
2023/06/18 12:07:29;;;;;;;80.15;57.67;;;26.90;63.40;;;;;;4970852;28;97491;-82
2023/06/18 12:09:58;;;;;;;81.43;57.80;;;27.00;61.40;;;;;;4967103;28;95672;-83
2023/06/18 12:12:42;;;;;;;83.05;58.38;;;27.10;63.50;;;;;;4964433;28;95973;-82
2023/06/18 12:15:14;;;;;;;81.72;57.83;;;27.20;62.10;;;;;;4962980;28;99027;-83
2023/06/18 12:18:14;;;;;;;82.10;57.95;;;27.10;62.10;;;;;;4958875;28;97529;-84
2023/06/18 12:20:41;;;;;;;81.75;57.70;;;27.00;62.50;;;;;;4959153;28;97788;-82
2023/06/18 12:23:07;;;;;;;79.95;57.55;;;27.00;61.70;;;;;;4961379;28;94286;-83
2023/06/18 12:25:33;;;;;;;80.20;57.75;;;27.00;62.50;;;;;;4957535;28;99815;-83
2023/06/18 12:28:04;;;;;;;82.85;57.65;;;27.00;62.60;;;;;;4959868;28;98061;-81